createdAt,value
2019-05-26T05:52:12.300Z,10.50
2019-05-26T05:54:45.253Z,15.70
2019-05-26T05:57:16.969Z,16.10
2019-05-26T05:59:46.146Z,16.60
2019-05-26T06:02:15.641Z,16.90
2019-05-26T06:04:44.737Z,16.80
2019-05-26T06:07:13.832Z,16.40
2019-05-26T06:09:42.928Z,16.40
2019-05-26T06:12:11.931Z,16.60
2019-05-26T06:14:46.381Z,17.00
2019-05-26T06:24:45.239Z,17.60
2019-05-26T06:27:14.378Z,19.30
2019-05-26T06:29:57.978Z,19.50
2019-05-26T06:32:14.447Z,19.60
2019-05-26T06:34:44.049Z,19.60
2019-05-26T06:37:13.110Z,19.30
2019-05-26T06:39:46.715Z,19.30
2019-05-26T06:42:18.571Z,19.40
2019-05-26T06:44:53.635Z,19.70
2019-05-26T06:47:18.303Z,19.50
2019-05-26T06:49:48.423Z,19.60
2019-05-26T06:52:17.516Z,19.60
2019-05-26T06:54:46.604Z,19.90
2019-05-26T06:57:16.518Z,20.30
2019-05-26T07:02:15.792Z,22.00
2019-05-26T07:04:45.009Z,22.80
2019-05-26T07:07:15.865Z,22.90
2019-05-26T07:09:45.637Z,22.40
2019-05-26T07:12:17.859Z,22.40
2019-05-26T07:14:45.407Z,22.00
2019-05-26T07:17:14.402Z,21.30
2019-05-26T07:19:43.491Z,21.80
2019-05-26T07:22:12.653Z,23.10
2019-05-26T07:24:41.785Z,23.90
2019-05-26T07:27:10.875Z,24.50
2019-05-26T07:29:39.971Z,25.20
2019-05-26T07:32:09.182Z,25.60
2019-05-26T07:34:38.262Z,24.90
2019-05-26T07:37:07.359Z,24.20
2019-05-26T07:39:36.451Z,23.60
2019-05-26T07:42:10.691Z,22.90
2019-05-26T07:44:36.486Z,22.20
2019-05-26T07:47:05.887Z,21.80
2019-05-26T07:59:30.649Z,22.60
2019-05-26T08:01:59.745Z,22.70
2019-05-26T08:04:28.835Z,22.80
2019-05-26T08:06:58.142Z,22.30
2019-05-26T08:09:27.437Z,21.80
2019-05-26T08:11:56.530Z,21.10
2019-05-26T08:14:25.627Z,20.60
2019-05-26T08:16:54.822Z,20.20
2019-05-26T08:19:26.384Z,19.90
2019-05-26T08:21:55.486Z,19.90
2019-05-26T08:24:26.885Z,19.70
2019-05-26T08:26:58.275Z,19.40
2019-05-26T08:29:27.364Z,19.50
2019-05-26T08:31:56.496Z,19.40
2019-05-26T08:34:26.489Z,19.40
2019-05-26T08:36:59.169Z,19.50
2019-05-26T08:39:28.272Z,19.70
2019-05-26T08:41:59.388Z,19.90
2019-05-26T08:44:28.485Z,20.00
2019-05-26T08:46:57.681Z,20.00
2019-05-26T08:49:27.554Z,19.50
2019-05-26T08:51:56.692Z,19.00
2019-05-26T08:54:26.814Z,18.60
2019-05-26T08:56:59.898Z,18.20
2019-05-26T08:59:28.994Z,18.20
2019-05-26T09:01:58.089Z,18.10
2019-05-26T09:04:28.080Z,18.00
2019-05-26T09:06:57.096Z,18.00
2019-05-26T10:21:36.906Z,17.90
2019-05-26T10:24:06.012Z,16.90
2019-05-26T10:26:35.097Z,16.70
2019-05-26T10:29:04.196Z,16.60
2019-05-26T10:44:02.858Z,16.40
2019-05-26T10:46:31.950Z,17.00
2019-05-26T10:49:01.047Z,17.00
2019-05-26T10:51:30.144Z,16.80
2019-05-26T10:53:59.103Z,16.60
2019-05-26T10:56:29.227Z,16.50
2019-05-26T10:58:58.349Z,16.40
2019-05-26T11:01:27.441Z,16.20
2019-05-26T11:03:59.281Z,16.10
2019-05-26T11:06:28.403Z,16.10
2019-05-26T11:08:57.489Z,15.90
2019-05-26T11:11:29.275Z,15.80
2019-05-26T11:14:02.870Z,15.70
2019-05-26T11:16:28.974Z,15.70
2019-05-26T11:18:57.992Z,15.80
2019-05-26T11:21:27.062Z,16.00
2019-05-26T11:23:56.156Z,16.10
2019-05-26T11:26:27.942Z,16.30
2019-05-26T11:28:57.009Z,16.30
2019-05-26T11:31:26.111Z,15.90
2019-05-26T12:03:43.392Z,15.60
2019-05-26T12:06:12.611Z,14.80
2019-05-26T12:08:42.731Z,14.80
2019-05-26T12:11:11.826Z,14.70
2019-05-26T12:13:40.921Z,14.90
2019-05-26T12:16:09.954Z,14.90
2019-05-26T12:18:39.013Z,15.30
2019-05-26T12:21:11.899Z,16.00
2019-05-26T12:23:41.091Z,16.60
2019-05-26T12:26:10.198Z,17.10
2019-05-26T12:28:39.279Z,17.40
2019-05-26T12:31:08.372Z,17.60
2019-05-26T12:33:40.421Z,17.50
2019-05-26T12:36:10.557Z,17.50
2019-05-26T12:38:41.125Z,17.20
2019-05-26T12:41:11.305Z,17.10
2019-05-26T12:43:40.400Z,17.10
2019-05-26T12:46:09.496Z,16.90
2019-05-26T12:48:38.589Z,16.80
2019-05-26T12:51:07.685Z,16.50
2019-05-26T12:53:37.291Z,16.20
2019-05-26T12:56:06.491Z,15.90
2019-05-26T12:58:35.586Z,15.60
2019-05-26T13:01:09.698Z,15.20
2019-05-26T13:03:38.792Z,15.00
2019-05-26T13:06:11.672Z,14.90
2019-05-26T13:08:40.668Z,15.00
2019-05-26T13:11:09.764Z,15.30
2019-05-26T13:13:38.866Z,15.40
2019-05-26T13:16:08.262Z,15.30
2019-05-26T13:18:37.354Z,15.20
2019-05-26T13:21:06.450Z,15.10
2019-05-26T13:23:38.516Z,15.10
2019-05-26T13:26:07.607Z,15.00
2019-05-26T13:28:36.702Z,15.20
2019-05-26T13:31:05.797Z,15.20
2019-05-26T13:33:34.893Z,15.30
2019-05-26T13:36:04.397Z,15.50
2019-05-26T13:38:33.492Z,15.40
2019-05-26T13:41:02.586Z,15.60
2019-05-26T13:43:31.684Z,15.70
2019-05-26T13:46:00.778Z,15.80
2019-05-26T13:48:29.975Z,16.00
2019-05-26T13:51:00.103Z,15.70
2019-05-26T13:53:33.487Z,15.30
2019-05-26T13:56:02.583Z,15.10
2019-05-26T13:58:36.932Z,15.00
2019-05-26T14:01:06.097Z,14.90
2019-05-26T14:03:35.195Z,15.10
2019-05-26T14:06:04.373Z,15.30
2019-05-26T14:08:33.590Z,15.50
2019-05-26T14:11:02.705Z,15.60
2019-05-26T14:13:31.883Z,15.70
2019-05-26T14:16:01.712Z,15.70
2019-05-26T14:18:32.058Z,15.70
2019-05-26T14:21:01.109Z,15.60
2019-05-26T14:23:30.304Z,15.40
2019-05-26T14:26:00.529Z,15.40
2019-05-26T14:28:29.624Z,15.20
2019-05-26T14:30:58.922Z,15.10
2019-05-26T14:36:00.601Z,14.80
2019-05-26T14:38:42.184Z,14.60
2019-05-26T15:33:34.966Z,14.70
2019-05-26T15:36:07.883Z,14.20
2019-05-26T15:38:42.939Z,14.00
2019-05-26T15:41:09.623Z,13.90
2019-05-26T15:43:38.716Z,13.80
2019-05-26T15:46:22.162Z,13.70
2019-05-26T15:48:38.448Z,13.70
2019-05-26T15:51:07.553Z,13.60
2019-05-26T18:20:14.797Z,13.60
2019-05-26T18:22:44.268Z,11.60
2019-05-26T18:25:13.966Z,11.50
2019-05-26T18:27:43.071Z,11.40
2019-05-26T18:30:13.713Z,11.40
2019-05-26T18:32:42.961Z,11.30
2019-05-26T18:35:12.331Z,11.30
2019-05-26T18:37:41.500Z,11.30
2019-05-26T18:40:12.019Z,11.20
2019-05-26T18:42:41.409Z,11.20
2019-05-26T18:45:10.730Z,11.20
2019-05-26T18:47:39.827Z,11.20
2019-05-26T18:50:11.175Z,11.20
2019-05-26T18:52:43.851Z,11.10
2019-05-26T18:55:14.033Z,11.20
2019-05-26T18:57:43.543Z,11.20
2019-05-26T19:00:14.360Z,11.20
2019-05-26T19:02:43.409Z,11.20
2019-05-26T19:05:13.908Z,11.20
2019-05-26T19:07:44.050Z,11.20
2019-05-26T19:10:14.611Z,11.20
2019-05-26T19:12:43.782Z,11.20
2019-05-26T19:15:13.135Z,11.10
2019-05-26T19:17:42.275Z,11.10
2019-05-26T19:20:16.472Z,11.00
2019-05-26T19:22:43.024Z,11.00
2019-05-26T19:25:13.466Z,11.00
2019-05-26T19:27:45.379Z,11.00
2019-05-26T19:30:14.904Z,11.10
2019-05-26T19:32:50.541Z,11.10
2019-05-26T19:35:22.436Z,11.10
2019-05-26T19:37:54.900Z,11.10
2019-05-26T19:40:25.999Z,11.10
2019-05-26T19:42:55.343Z,11.10
2019-05-26T19:45:24.342Z,11.20
2019-05-26T19:47:53.944Z,11.10
2019-05-26T19:50:23.137Z,11.10
2019-05-26T19:52:52.232Z,11.10
2019-05-26T19:55:21.274Z,11.10
2019-05-26T19:57:50.731Z,11.10
2019-05-26T20:00:20.389Z,11.10
2019-05-26T21:30:20.508Z,10.00
2019-05-26T21:32:52.521Z,9.90
2019-05-26T21:35:30.699Z,9.80
2019-05-26T21:38:00.115Z,9.80
2019-05-26T21:40:32.043Z,9.80
2019-05-26T21:43:01.354Z,9.70
2019-05-26T21:45:30.456Z,9.70
2019-05-26T21:47:59.544Z,9.70
2019-05-26T21:50:28.697Z,9.70
2019-05-26T21:52:57.837Z,9.60
2019-05-26T21:55:28.763Z,9.60
2019-05-26T21:57:57.867Z,9.60
2019-05-26T22:00:29.874Z,9.60
2019-05-26T22:02:58.927Z,9.50
2019-05-26T22:05:28.018Z,9.50
2019-05-26T22:07:57.113Z,9.50
2019-05-26T22:10:26.210Z,9.50
